Time;durP1;ratioP1;P1;durP2;ratioP2;P2;SDS_P1;SDS_P2;PMS_P1;PMS_P2;Temp;Humidity;BMP_temperature;BMP_pressure;BME280_temperature;BME280_humidity;BME280_pressure;Samples;Min_cycle;Max_cycle;Signal;HPM_P1;HPM_P2
2021/07/28 04:02:02;;;;;;;14.10;12.90;;;18.80;99.90;;;;;;5283412;23;20489;-62
2021/07/28 04:04:29;;;;;;;14.87;13.37;;;18.80;99.90;;;;;;4994485;28;20485;-62
2021/07/28 04:06:55;;;;;;;15.47;13.90;;;18.90;99.90;;;;;;4994409;28;20458;-62
2021/07/28 04:09:22;;;;;;;15.57;14.17;;;18.90;99.90;;;;;;4998685;28;20461;-62
2021/07/28 04:11:49;;;;;;;15.60;13.60;;;19.00;99.90;;;;;;4998314;28;20876;-63
2021/07/28 04:14:15;;;;;;;17.47;14.87;;;19.00;99.90;;;;;;4998337;28;20965;-63
2021/07/28 04:16:42;;;;;;;18.50;14.90;;;19.00;99.90;;;;;;4998593;28;20515;-63
2021/07/28 04:19:10;;;;;;;17.77;16.10;;;19.00;99.90;;;;;;5010826;28;20469;-63
2021/07/28 04:21:37;;;;;;;18.10;16.50;;;19.00;99.90;;;;;;5021256;28;20465;-61
2021/07/28 04:24:03;;;;;;;19.87;17.77;;;18.90;99.90;;;;;;5021841;28;20465;-63
2021/07/28 04:26:31;;;;;;;18.53;16.67;;;18.90;99.90;;;;;;5021159;28;20441;-63
2021/07/28 04:28:57;;;;;;;16.83;15.33;;;19.00;99.90;;;;;;5021435;28;20464;-62
2021/07/28 04:31:24;;;;;;;24.47;17.97;;;19.10;99.90;;;;;;5007789;28;20477;-63
2021/07/28 04:33:51;;;;;;;19.40;17.70;;;19.10;99.90;;;;;;4998522;28;20445;-63
2021/07/28 04:36:19;;;;;;;18.80;16.80;;;19.20;99.90;;;;;;4998289;28;20500;-63
2021/07/28 04:38:45;;;;;;;19.37;17.27;;;19.30;99.90;;;;;;4998274;28;20457;-62
2021/07/28 04:41:12;;;;;;;18.23;16.47;;;19.30;99.90;;;;;;4998123;28;20477;-61
2021/07/28 04:43:39;;;;;;;17.90;16.20;;;19.30;99.90;;;;;;5006580;28;20426;-62
2021/07/28 04:46:05;;;;;;;19.43;17.63;;;19.30;99.90;;;;;;5013784;28;20474;-62
2021/07/28 04:48:32;;;;;;;18.70;15.80;;;19.20;99.90;;;;;;4997695;28;20453;-63
2021/07/28 04:50:59;;;;;;;19.50;15.60;;;19.30;99.90;;;;;;4997211;28;20989;-63
2021/07/28 04:53:28;;;;;;;16.57;14.87;;;19.30;99.90;;;;;;5002118;28;20447;-63
2021/07/28 04:55:56;;;;;;;17.27;14.60;;;19.40;99.90;;;;;;4997683;28;20545;-63
2021/07/28 04:58:23;;;;;;;15.80;14.40;;;19.50;99.90;;;;;;4997752;28;20454;-63
2021/07/28 05:00:51;;;;;;;16.43;15.03;;;19.60;99.90;;;;;;4997519;28;20492;-63
2021/07/28 05:03:18;;;;;;;15.93;14.60;;;19.60;99.90;;;;;;4997720;28;20442;-61
2021/07/28 05:05:45;;;;;;;17.60;15.93;;;19.70;99.90;;;;;;4997491;28;20596;-61
2021/07/28 05:08:13;;;;;;;14.93;13.63;;;19.70;99.90;;;;;;4997465;28;20457;-63
2021/07/28 05:10:41;;;;;;;16.10;14.63;;;19.70;99.90;;;;;;4997366;28;20478;-62
2021/07/28 05:13:08;;;;;;;15.60;14.10;;;19.70;99.90;;;;;;4997908;28;20457;-63
2021/07/28 05:15:34;;;;;;;15.57;14.27;;;19.80;99.90;;;;;;5003063;28;20442;-62
2021/07/28 05:18:01;;;;;;;15.73;14.47;;;19.80;99.90;;;;;;4998559;28;20449;-63
2021/07/28 05:20:28;;;;;;;15.63;14.10;;;19.80;99.90;;;;;;4996962;28;20997;-63
2021/07/28 05:22:54;;;;;;;17.67;15.87;;;19.90;99.90;;;;;;4997195;28;20473;-63
2021/07/28 05:25:21;;;;;;;15.63;14.30;;;19.80;99.90;;;;;;4997345;28;20478;-64
2021/07/28 05:27:49;;;;;;;15.90;14.40;;;19.90;99.90;;;;;;4997180;28;20465;-63
2021/07/28 05:30:16;;;;;;;15.67;14.07;;;19.90;99.90;;;;;;4997309;28;20449;-62
2021/07/28 05:32:44;;;;;;;15.13;14.00;;;20.00;99.90;;;;;;4997292;28;20460;-62
2021/07/28 05:35:11;;;;;;;15.40;13.90;;;20.00;99.90;;;;;;4997322;28;20438;-62
2021/07/28 05:37:38;;;;;;;16.13;14.47;;;20.00;99.90;;;;;;5013996;28;20437;-63
2021/07/28 05:40:06;;;;;;;14.33;13.23;;;20.10;99.90;;;;;;5021321;28;20446;-63
2021/07/28 05:42:33;;;;;;;15.43;14.00;;;20.10;99.90;;;;;;5020883;28;20460;-63
2021/07/28 05:45:01;;;;;;;15.23;13.60;;;20.10;99.90;;;;;;5010593;28;20470;-62
2021/07/28 05:47:28;;;;;;;15.57;14.00;;;20.00;99.90;;;;;;4996835;28;20457;-62
2021/07/28 05:49:55;;;;;;;15.33;13.77;;;20.00;99.90;;;;;;4997122;28;20493;-63
2021/07/28 05:52:21;;;;;;;17.47;14.03;;;20.00;99.90;;;;;;4996895;28;20478;-62
2021/07/28 05:54:48;;;;;;;15.00;13.43;;;20.00;99.90;;;;;;4996506;28;20918;-63
2021/07/28 05:57:15;;;;;;;13.50;12.30;;;20.10;99.90;;;;;;4996833;28;20950;-64
2021/07/28 05:59:42;;;;;;;13.20;12.00;;;20.10;99.90;;;;;;4997832;28;20460;-63
2021/07/28 06:02:10;;;;;;;14.47;13.30;;;20.20;99.90;;;;;;4996312;28;20485;-63
2021/07/28 06:04:36;;;;;;;14.50;13.17;;;20.20;99.90;;;;;;4996409;28;20454;-63
2021/07/28 06:07:03;;;;;;;15.10;13.57;;;20.20;99.90;;;;;;4995965;28;20943;-63
2021/07/28 06:09:30;;;;;;;15.73;14.43;;;20.30;99.90;;;;;;4996407;28;20525;-63
2021/07/28 06:11:57;;;;;;;13.57;12.37;;;20.30;99.90;;;;;;4996175;28;20474;-62
2021/07/28 06:14:23;;;;;;;14.10;12.90;;;20.40;99.90;;;;;;4996294;28;20516;-63
2021/07/28 06:16:50;;;;;;;12.93;11.83;;;20.50;99.90;;;;;;4997735;28;20454;-63
2021/07/28 06:19:18;;;;;;;13.90;12.70;;;20.40;99.90;;;;;;4996979;28;20464;-63
2021/07/28 06:21:45;;;;;;;14.00;12.70;;;20.50;99.90;;;;;;4996219;28;20485;-63
2021/07/28 06:24:11;;;;;;;12.73;11.63;;;20.50;99.90;;;;;;4995933;28;20465;-63
2021/07/28 06:26:38;;;;;;;17.07;13.40;;;20.60;99.90;;;;;;4996099;28;20481;-63
2021/07/28 06:29:05;;;;;;;14.47;13.27;;;20.60;99.90;;;;;;4996199;28;20457;-63
2021/07/28 06:31:31;;;;;;;13.33;12.13;;;20.60;99.90;;;;;;4995170;28;20477;-63
2021/07/28 06:33:58;;;;;;;13.60;12.40;;;20.60;99.90;;;;;;4995813;28;20460;-62
2021/07/28 06:36:26;;;;;;;11.73;10.63;;;20.60;99.90;;;;;;4996076;28;20852;-63
2021/07/28 06:38:53;;;;;;;13.10;11.90;;;20.60;99.90;;;;;;4995460;28;20469;-62
2021/07/28 06:41:19;;;;;;;12.97;11.87;;;20.60;99.90;;;;;;4996554;28;20477;-63
2021/07/28 06:43:46;;;;;;;14.23;12.43;;;20.70;99.90;;;;;;4995907;28;20508;-63
2021/07/28 06:46:13;;;;;;;13.63;12.23;;;20.70;99.90;;;;;;4995409;28;21005;-63
2021/07/28 06:48:39;;;;;;;12.73;11.63;;;20.60;99.90;;;;;;4997361;28;20457;-62
2021/07/28 06:51:06;;;;;;;13.60;12.20;;;20.60;99.90;;;;;;5005485;28;20482;-63
2021/07/28 06:53:34;;;;;;;14.27;12.97;;;20.60;99.90;;;;;;4996640;28;20453;-63
2021/07/28 06:56:01;;;;;;;14.00;12.70;;;20.60;99.90;;;;;;4995452;28;20473;-63
2021/07/28 06:58:27;;;;;;;13.97;12.83;;;20.60;99.90;;;;;;4995568;28;20454;-62
2021/07/28 07:00:56;;;;;;;14.97;13.57;;;20.60;99.90;;;;;;4995156;28;20539;-62
2021/07/28 07:03:23;;;;;;;15.23;14.03;;;20.60;99.90;;;;;;4995567;28;20951;-62
2021/07/28 07:05:50;;;;;;;14.70;13.37;;;20.50;99.90;;;;;;4995406;28;20484;-62
2021/07/28 07:08:16;;;;;;;15.13;13.63;;;20.50;99.90;;;;;;4995451;28;20453;-62
2021/07/28 07:10:45;;;;;;;15.57;14.17;;;20.50;99.90;;;;;;4994811;28;20982;-62
2021/07/28 07:13:12;;;;;;;16.80;14.10;;;20.40;99.90;;;;;;4995409;28;20540;-62
2021/07/28 07:15:39;;;;;;;14.10;12.83;;;20.40;99.90;;;;;;4996089;28;20446;-63
2021/07/28 07:18:05;;;;;;;15.07;13.50;;;20.50;99.90;;;;;;4995633;28;20506;-63
2021/07/28 07:20:32;;;;;;;14.87;13.47;;;20.60;99.90;;;;;;4995294;28;20492;-63
2021/07/28 07:22:59;;;;;;;15.10;13.70;;;20.70;99.90;;;;;;4995000;28;20453;-63
2021/07/28 07:25:25;;;;;;;15.67;14.27;;;20.70;99.90;;;;;;4994693;28;20983;-63
2021/07/28 07:27:53;;;;;;;14.80;13.50;;;20.80;99.90;;;;;;4995066;28;20434;-63
2021/07/28 07:30:21;;;;;;;15.40;13.87;;;20.90;99.90;;;;;;4994967;28;20454;-63
2021/07/28 07:33:37;;;;;;;13.07;12.00;;;21.00;99.90;;;;;;4995179;28;20449;-62
2021/07/28 07:35:35;;;;;;;13.73;12.60;;;21.10;99.90;;;;;;4994774;28;20446;-62
2021/07/28 07:38:01;;;;;;;12.20;11.20;;;21.00;99.90;;;;;;4994941;28;20449;-62
2021/07/28 07:40:28;;;;;;;13.43;12.33;;;21.10;99.90;;;;;;4995035;28;20457;-62
2021/07/28 07:42:56;;;;;;;13.07;11.80;;;21.10;99.90;;;;;;4994007;28;20468;-62
2021/07/28 07:45:23;;;;;;;11.00;10.00;;;21.10;99.90;;;;;;5008785;28;20450;-62
2021/07/28 07:47:50;;;;;;;10.83;9.93;;;21.10;99.90;;;;;;5013547;28;20454;-63
2021/07/28 07:50:16;;;;;;;11.20;10.20;;;21.20;99.90;;;;;;5010988;28;20454;-63
2021/07/28 07:52:43;;;;;;;10.73;9.77;;;21.30;99.90;;;;;;5010545;28;20454;-63
2021/07/28 07:55:11;;;;;;;11.60;10.50;;;21.40;99.90;;;;;;5008775;28;20457;-63
2021/07/28 07:57:37;;;;;;;14.93;10.07;;;21.40;99.90;;;;;;5010491;28;20433;-62
2021/07/28 08:00:07;;;;;;;11.03;10.00;;;21.50;99.90;;;;;;5011448;28;20438;-62
2021/07/28 08:02:33;;;;;;;10.60;9.70;;;21.40;99.90;;;;;;5010836;28;20482;-63
2021/07/28 08:05:00;;;;;;;10.33;9.27;;;21.40;99.90;;;;;;5011675;28;20450;-62
2021/07/28 08:07:27;;;;;;;9.00;8.20;;;21.30;99.90;;;;;;5008499;28;20477;-64
2021/07/28 08:09:53;;;;;;;9.03;8.17;;;21.20;99.90;;;;;;4995465;28;20442;-64
2021/07/28 08:12:20;;;;;;;11.03;9.83;;;21.20;99.90;;;;;;4995071;28;20839;-63
2021/07/28 08:14:48;;;;;;;9.93;8.57;;;21.10;99.90;;;;;;4994576;28;20464;-62
2021/07/28 08:17:16;;;;;;;8.83;8.13;;;21.10;99.90;;;;;;4994538;28;20454;-63
2021/07/28 08:19:43;;;;;;;9.13;8.43;;;21.00;99.90;;;;;;4994160;28;20460;-62
2021/07/28 08:22:10;;;;;;;9.00;8.20;;;20.90;99.90;;;;;;4994745;28;20478;-63
2021/07/28 08:24:36;;;;;;;9.00;8.20;;;20.80;99.90;;;;;;4995696;28;20458;-63
2021/07/28 08:27:03;;;;;;;9.80;8.27;;;20.70;99.90;;;;;;4994838;28;20486;-63
2021/07/28 08:29:30;;;;;;;10.73;8.23;;;20.70;99.90;;;;;;4994017;28;20817;-63
2021/07/28 08:31:57;;;;;;;8.50;7.60;;;20.60;99.90;;;;;;4994282;28;20477;-62
2021/07/28 08:34:25;;;;;;;8.73;7.80;;;20.60;99.90;;;;;;4994004;28;20453;-64
2021/07/28 08:36:51;;;;;;;7.90;7.20;;;20.60;99.90;;;;;;4995116;28;20835;-63
2021/07/28 08:39:18;;;;;;;7.80;7.10;;;20.60;99.90;;;;;;4993941;28;20458;-62
2021/07/28 08:41:48;;;;;;;8.97;8.27;;;20.50;99.90;;;;;;4994130;28;20505;-63
2021/07/28 08:44:19;;;;;;;9.90;7.20;;;20.50;99.90;;;;;;4993994;28;20940;-62
2021/07/28 08:46:46;;;;;;;10.20;7.63;;;20.60;99.90;;;;;;4994300;28;20462;-62
2021/07/28 08:49:13;;;;;;;8.40;7.70;;;20.70;99.90;;;;;;5013686;28;20450;-62
2021/07/28 08:51:44;;;;;;;8.70;7.90;;;20.70;99.90;;;;;;4995258;28;20470;-63
2021/07/28 08:54:11;;;;;;;7.90;7.10;;;20.70;99.90;;;;;;4996915;28;20442;-62
2021/07/28 08:56:40;;;;;;;7.77;6.97;;;20.80;99.90;;;;;;4999020;28;20460;-63
2021/07/28 08:59:23;;;;;;;7.80;7.00;;;20.80;99.90;;;;;;4997683;28;20457;-62
2021/07/28 09:01:50;;;;;;;7.47;6.87;;;20.90;99.90;;;;;;4997267;28;20484;-63
2021/07/28 09:04:17;;;;;;;7.83;7.13;;;21.10;99.90;;;;;;4997465;28;20463;-62
2021/07/28 09:06:45;;;;;;;8.07;7.20;;;21.30;99.90;;;;;;4997436;28;20483;-63
2021/07/28 09:09:12;;;;;;;8.53;7.47;;;21.40;99.90;;;;;;4997766;28;20453;-62
2021/07/28 09:11:52;;;;;;;8.80;8.20;;;21.60;99.90;;;;;;4997574;28;20478;-63
2021/07/28 09:14:21;;;;;;;7.40;6.80;;;21.50;99.90;;;;;;4997129;28;20883;-63
2021/07/28 09:16:48;;;;;;;8.13;7.43;;;21.60;99.90;;;;;;4997321;28;20454;-63
2021/07/28 09:19:15;;;;;;;7.67;6.97;;;21.80;99.90;;;;;;4997220;28;20459;-63
2021/07/28 09:21:41;;;;;;;12.67;7.50;;;22.10;99.90;;;;;;4997067;28;20478;-63
2021/07/28 09:24:12;;;;;;;8.00;7.20;;;22.40;99.90;;;;;;4997070;28;20465;-64
2021/07/28 09:26:43;;;;;;;7.10;6.50;;;22.80;99.90;;;;;;4996915;28;20505;-63
2021/07/28 09:29:11;;;;;;;8.20;7.27;;;23.20;99.90;;;;;;4996698;28;20497;-63
2021/07/28 09:31:42;;;;;;;7.40;6.53;;;23.40;99.90;;;;;;4996856;28;20474;-63
2021/07/28 09:34:28;;;;;;;8.70;6.13;;;23.60;99.90;;;;;;4996895;28;20438;-63
2021/07/28 09:36:56;;;;;;;7.40;6.70;;;23.70;99.90;;;;;;4996974;28;20554;-62
2021/07/28 09:39:28;;;;;;;6.37;5.87;;;23.80;99.90;;;;;;4996855;28;20480;-63
2021/07/28 09:41:55;;;;;;;6.70;6.10;;;23.90;99.90;;;;;;4996793;28;20473;-63
2021/07/28 09:44:27;;;;;;;6.77;6.17;;;24.10;99.90;;;;;;4996536;28;20966;-64
2021/07/28 09:47:13;;;;;;;6.77;6.13;;;23.90;99.90;;;;;;4996727;28;20473;-63
2021/07/28 09:49:41;;;;;;;7.57;6.10;;;23.80;99.90;;;;;;4996518;28;20441;-63
2021/07/28 09:52:22;;;;;;;6.00;5.50;;;23.80;99.90;;;;;;4996673;28;20585;-64
2021/07/28 09:54:52;;;;;;;6.33;5.83;;;23.60;99.90;;;;;;4996387;28;20907;-63
2021/07/28 09:57:23;;;;;;;8.80;6.20;;;23.70;99.90;;;;;;5000168;28;20457;-63
2021/07/28 09:59:53;;;;;;;7.40;6.30;;;23.80;99.90;;;;;;4997313;28;20919;-63
2021/07/28 10:02:23;;;;;;;6.67;6.17;;;24.30;99.90;;;;;;4997577;28;20521;-64
2021/07/28 10:04:51;;;;;;;5.80;5.40;;;24.40;99.90;;;;;;4996083;28;20943;-64
2021/07/28 10:07:19;;;;;;;6.80;6.20;;;24.60;99.90;;;;;;4996037;28;20477;-63
2021/07/28 10:09:52;;;;;;;6.93;6.40;;;24.90;99.90;;;;;;4996258;28;20828;-63
2021/07/28 10:12:20;;;;;;;6.93;5.60;;;25.00;99.90;;;;;;4996183;28;20819;-64
2021/07/28 10:14:48;;;;;;;7.60;6.10;;;25.40;99.90;;;;;;4996453;28;20495;-63
2021/07/28 10:17:14;;;;;;;6.50;6.00;;;25.60;99.90;;;;;;4997591;28;20454;-64
2021/07/28 10:19:41;;;;;;;6.97;6.30;;;25.80;99.90;;;;;;4998427;28;20454;-64
2021/07/28 10:22:08;;;;;;;7.23;6.53;;;25.80;99.90;;;;;;4997319;28;20827;-62
2021/07/28 10:24:35;;;;;;;6.77;6.27;;;25.70;99.90;;;;;;4997167;28;20485;-64
2021/07/28 10:27:04;;;;;;;6.40;5.83;;;25.70;99.90;;;;;;4999494;28;20564;-63
2021/07/28 10:29:31;;;;;;;6.13;5.63;;;25.70;99.90;;;;;;4999550;28;20453;-63
2021/07/28 10:31:58;;;;;;;6.10;5.60;;;25.50;99.90;;;;;;4996261;28;20480;-63
2021/07/28 10:34:26;;;;;;;6.70;6.20;;;25.20;99.90;;;;;;4997751;28;20482;-62
2021/07/28 10:36:55;;;;;;;6.27;5.57;;;25.20;99.90;;;;;;4998963;28;20477;-63
2021/07/28 10:39:42;;;;;;;7.20;6.57;;;25.10;99.90;;;;;;4996002;28;20523;-64
2021/07/28 10:42:12;;;;;;;5.70;5.23;;;25.20;99.90;;;;;;4995569;28;20505;-63
2021/07/28 10:45:02;;;;;;;6.80;6.10;;;25.20;99.90;;;;;;4996432;28;20457;-62
2021/07/28 10:47:47;;;;;;;6.77;6.10;;;24.90;99.90;;;;;;4996459;28;20473;-63
2021/07/28 10:50:46;;;;;;;6.03;5.30;;;24.90;99.90;;;;;;4996305;28;20440;-64
2021/07/28 10:53:13;;;;;;;6.40;5.80;;;24.90;99.90;;;;;;4996245;28;20451;-62
2021/07/28 10:55:40;;;;;;;6.50;5.90;;;24.70;99.90;;;;;;4995330;28;20445;-64
2021/07/28 10:58:26;;;;;;;6.43;5.90;;;24.80;99.90;;;;;;4995531;28;20445;-63
2021/07/28 11:00:53;;;;;;;5.63;5.23;;;25.00;99.90;;;;;;4995299;28;20482;-63
2021/07/28 11:03:20;;;;;;;6.37;5.97;;;25.40;99.90;;;;;;4995384;28;20456;-64
2021/07/28 11:05:49;;;;;;;5.57;5.17;;;26.00;99.90;;;;;;4995785;28;20457;-64
2021/07/28 11:08:19;;;;;;;6.13;5.63;;;26.70;99.90;;;;;;4999227;28;20473;-63
2021/07/28 11:10:58;;;;;;;6.03;5.47;;;26.60;99.90;;;;;;5014503;28;20543;-63
2021/07/28 11:13:27;;;;;;;6.43;5.30;;;27.00;99.90;;;;;;5014444;28;20434;-64
2021/07/28 11:15:56;;;;;;;6.00;5.40;;;27.20;99.90;;;;;;5010771;28;20438;-64
2021/07/28 11:18:37;;;;;;;5.90;5.50;;;27.00;99.90;;;;;;5011055;28;20445;-64
2021/07/28 11:21:08;;;;;;;5.10;4.70;;;26.90;99.90;;;;;;5007759;28;20516;-63
2021/07/28 11:23:47;;;;;;;5.63;5.00;;;27.10;99.90;;;;;;5001438;28;20442;-63
2021/07/28 11:26:25;;;;;;;6.60;6.00;;;27.60;99.90;;;;;;4997343;28;20460;-63
2021/07/28 11:28:55;;;;;;;6.53;5.87;;;28.00;99.90;;;;;;4997578;28;20429;-63
2021/07/28 11:31:27;;;;;;;6.50;5.53;;;28.60;99.90;;;;;;4996922;28;20469;-63
2021/07/28 11:34:10;;;;;;;5.23;4.83;;;29.00;99.90;;;;;;4996892;28;20434;-63
2021/07/28 11:36:38;;;;;;;5.83;5.33;;;29.30;99.90;;;;;;4995484;28;20461;-63
2021/07/28 11:39:09;;;;;;;5.23;4.70;;;29.30;99.90;;;;;;4995425;28;20442;-64
2021/07/28 11:41:36;;;;;;;5.97;5.57;;;29.10;99.90;;;;;;4994615;28;20470;-63
2021/07/28 11:44:04;;;;;;;5.50;5.10;;;29.00;99.90;;;;;;4994937;28;20457;-63
2021/07/28 11:46:31;;;;;;;5.80;5.47;;;28.70;99.90;;;;;;4994686;28;20954;-64
2021/07/28 11:48:59;;;;;;;5.47;5.07;;;28.60;99.10;;;;;;4994733;28;20833;-62
2021/07/28 11:51:28;;;;;;;6.37;4.80;;;28.50;99.80;;;;;;4994521;28;20840;-62
2021/07/28 11:54:07;;;;;;;5.97;5.53;;;28.30;99.90;;;;;;4994433;28;21045;-63
2021/07/28 11:56:34;;;;;;;5.47;5.17;;;28.10;99.90;;;;;;4994482;28;20438;-63
2021/07/28 11:59:01;;;;;;;5.33;5.03;;;28.10;99.90;;;;;;4994387;28;20445;-63
2021/07/28 12:01:30;;;;;;;5.67;5.13;;;28.00;99.90;;;;;;4994316;28;20490;-63
2021/07/28 12:03:59;;;;;;;5.80;5.40;;;27.40;99.90;;;;;;4994767;28;20454;-62
2021/07/28 12:06:30;;;;;;;5.97;5.50;;;27.00;99.90;;;;;;4995447;28;20453;-62
2021/07/28 12:09:11;;;;;;;5.60;5.20;;;27.20;99.90;;;;;;4996360;28;20473;-63
2021/07/28 12:11:48;;;;;;;5.80;5.30;;;27.50;99.90;;;;;;4994756;28;20528;-62
2021/07/28 12:14:30;;;;;;;5.50;5.10;;;27.50;99.90;;;;;;4995402;28;20453;-64
2021/07/28 12:17:00;;;;;;;5.60;5.10;;;27.60;99.90;;;;;;4994641;28;20433;-63
2021/07/28 12:19:29;;;;;;;5.43;5.03;;;27.50;99.90;;;;;;4994163;28;20954;-63
2021/07/28 12:22:09;;;;;;;5.30;4.90;;;27.60;99.90;;;;;;4994142;28;20474;-63
2021/07/28 12:24:41;;;;;;;5.67;5.23;;;27.70;99.90;;;;;;4994205;28;20448;-63
2021/07/28 12:27:40;;;;;;;5.57;5.07;;;27.60;99.90;;;;;;4993972;28;20466;-63
2021/07/28 12:30:10;;;;;;;7.83;5.43;;;27.20;99.90;;;;;;4989855;28;20458;-63
2021/07/28 12:32:39;;;;;;;5.83;5.10;;;27.00;99.90;;;;;;4997974;28;20469;-63
2021/07/28 12:35:08;;;;;;;5.83;5.43;;;26.80;99.90;;;;;;4998066;28;20770;-63
2021/07/28 12:37:35;;;;;;;5.37;4.97;;;26.80;99.90;;;;;;4997685;28;21001;-63
2021/07/28 12:40:01;;;;;;;5.60;5.20;;;26.80;99.90;;;;;;4997925;28;20453;-63
2021/07/28 12:42:29;;;;;;;5.80;5.30;;;27.00;99.90;;;;;;4997484;28;20469;-63
2021/07/28 12:44:55;;;;;;;5.17;4.77;;;27.00;99.90;;;;;;4997834;28;20540;-63
2021/07/28 12:47:23;;;;;;;5.17;4.87;;;26.80;99.90;;;;;;4997798;28;20830;-64
2021/07/28 12:49:52;;;;;;;5.10;4.70;;;27.00;99.90;;;;;;4997496;28;20983;-64
2021/07/28 12:52:18;;;;;;;5.80;5.40;;;27.10;99.90;;;;;;4997590;28;20481;-63
2021/07/28 12:54:45;;;;;;;5.23;4.83;;;27.10;99.90;;;;;;4997290;28;20464;-63
2021/07/28 12:57:12;;;;;;;6.00;5.53;;;26.80;99.90;;;;;;4997586;28;20449;-63
2021/07/28 12:59:38;;;;;;;5.50;5.00;;;26.60;99.90;;;;;;4997656;28;20458;-63
2021/07/28 13:02:05;;;;;;;5.80;5.30;;;26.30;99.90;;;;;;4998665;28;20496;-63
2021/07/28 13:04:32;;;;;;;5.77;5.27;;;26.00;99.90;;;;;;5000634;28;20449;-63
2021/07/28 13:07:09;;;;;;;5.57;5.20;;;25.70;99.90;;;;;;4998027;28;20465;-63
2021/07/28 13:09:35;;;;;;;5.83;5.37;;;25.60;99.90;;;;;;4997485;28;20528;-63
2021/07/28 13:12:02;;;;;;;5.30;4.90;;;25.60;99.90;;;;;;4997081;28;21013;-63
2021/07/28 13:14:29;;;;;;;5.67;5.17;;;25.60;99.90;;;;;;4997320;28;20461;-63
2021/07/28 13:16:56;;;;;;;5.60;5.10;;;25.50;99.90;;;;;;4997364;28;20565;-64
2021/07/28 13:19:22;;;;;;;5.23;4.80;;;25.50;99.90;;;;;;4996991;28;20476;-63
2021/07/28 13:21:49;;;;;;;5.40;5.10;;;25.60;99.90;;;;;;4997229;28;20473;-63
2021/07/28 13:24:18;;;;;;;5.33;4.83;;;25.60;99.90;;;;;;4997287;28;20454;-62
2021/07/28 13:26:45;;;;;;;6.47;5.27;;;25.60;99.90;;;;;;4997189;28;20489;-63
2021/07/28 13:29:11;;;;;;;5.43;5.07;;;25.70;99.90;;;;;;4997172;28;20474;-63
2021/07/28 13:31:38;;;;;;;5.10;4.77;;;25.70;99.90;;;;;;4996787;28;20978;-64
2021/07/28 13:34:05;;;;;;;7.83;4.90;;;25.80;99.90;;;;;;4997038;28;20489;-63
2021/07/28 13:36:34;;;;;;;6.20;5.03;;;25.90;99.90;;;;;;4996588;28;20946;-64
2021/07/28 13:39:03;;;;;;;5.87;5.40;;;26.10;99.90;;;;;;4996770;28;20461;-63
2021/07/28 13:41:31;;;;;;;5.93;5.37;;;26.20;99.90;;;;;;4995327;28;20513;-63
2021/07/28 13:43:58;;;;;;;5.00;4.60;;;26.50;99.90;;;;;;4996705;28;20457;-63
2021/07/28 13:46:24;;;;;;;5.73;5.23;;;26.60;99.90;;;;;;4996935;28;20458;-63
2021/07/28 13:48:51;;;;;;;9.93;6.00;;;26.60;99.90;;;;;;4996532;28;20474;-63
2021/07/28 13:51:18;;;;;;;8.07;6.10;;;26.60;99.90;;;;;;4996399;28;20477;-64
2021/07/28 13:53:45;;;;;;;7.83;5.47;;;26.50;99.90;;;;;;4996681;28;20449;-63
2021/07/28 13:56:11;;;;;;;6.40;5.30;;;26.50;99.90;;;;;;4996129;28;20970;-63
2021/07/28 13:58:39;;;;;;;5.87;5.30;;;26.40;99.90;;;;;;4996524;28;20456;-63
2021/07/28 14:01:06;;;;;;;5.70;5.10;;;26.30;99.90;;;;;;4996203;28;20492;-63
2021/07/28 14:03:33;;;;;;;5.30;4.80;;;26.40;99.90;;;;;;4996370;28;20465;-63
2021/07/28 14:06:00;;;;;;;5.37;4.97;;;26.30;99.90;;;;;;4997129;28;20546;-63
2021/07/28 14:08:27;;;;;;;6.77;5.50;;;26.30;99.90;;;;;;4996205;28;20482;-63
2021/07/28 14:10:53;;;;;;;5.93;5.30;;;26.30;99.90;;;;;;4996285;28;20485;-63
2021/07/28 14:13:20;;;;;;;5.27;4.80;;;26.30;99.90;;;;;;4996418;28;20464;-63
2021/07/28 14:15:48;;;;;;;6.07;5.47;;;26.30;99.90;;;;;;4996510;28;20461;-64
2021/07/28 14:18:16;;;;;;;5.17;4.77;;;26.10;99.90;;;;;;4995757;28;20454;-64
2021/07/28 14:20:43;;;;;;;5.07;4.70;;;26.10;99.90;;;;;;4995920;28;20480;-63
2021/07/28 14:23:09;;;;;;;5.83;5.33;;;25.90;99.90;;;;;;4995946;28;20449;-63
2021/07/28 14:25:36;;;;;;;5.23;4.83;;;25.80;99.90;;;;;;4996519;28;20461;-63
2021/07/28 14:28:05;;;;;;;5.60;5.00;;;25.70;99.90;;;;;;4996226;28;20482;-63
2021/07/28 14:30:31;;;;;;;5.77;5.37;;;25.70;99.90;;;;;;4995511;28;20939;-63
2021/07/28 14:32:59;;;;;;;5.57;4.63;;;25.70;99.90;;;;;;4995817;28;20828;-63
2021/07/28 14:35:26;;;;;;;5.77;5.37;;;25.70;99.90;;;;;;4996125;28;20454;-63
2021/07/28 14:37:53;;;;;;;5.23;4.90;;;25.70;99.90;;;;;;4997049;28;20485;-63
2021/07/28 14:40:20;;;;;;;5.17;4.80;;;25.80;99.90;;;;;;4995691;28;20888;-63
2021/07/28 14:42:46;;;;;;;5.43;5.03;;;25.90;99.90;;;;;;4995499;28;20461;-62
2021/07/28 14:45:14;;;;;;;6.00;5.50;;;25.90;99.90;;;;;;4995512;28;20508;-63
2021/07/28 14:47:42;;;;;;;5.97;5.40;;;26.00;99.90;;;;;;4995549;28;20484;-63
2021/07/28 14:50:12;;;;;;;5.90;5.50;;;25.80;99.90;;;;;;4995603;28;20462;-63
2021/07/28 14:52:38;;;;;;;5.20;4.70;;;25.80;99.90;;;;;;4995057;28;20478;-63
2021/07/28 14:55:06;;;;;;;5.00;4.50;;;25.60;99.90;;;;;;4995379;28;20465;-63
2021/07/28 14:57:34;;;;;;;4.63;4.27;;;25.30;99.90;;;;;;4998738;28;20457;-63
2021/07/28 15:00:01;;;;;;;5.20;4.80;;;25.10;99.90;;;;;;5013961;28;20430;-64
2021/07/28 15:02:28;;;;;;;4.60;4.23;;;24.90;99.90;;;;;;5016741;28;20504;-63
2021/07/28 15:04:54;;;;;;;4.70;4.40;;;24.70;99.90;;;;;;4997893;28;20454;-63
2021/07/28 15:07:22;;;;;;;6.63;3.90;;;24.60;99.90;;;;;;4995388;28;20453;-63
2021/07/28 15:09:49;;;;;;;4.10;3.80;;;24.60;99.90;;;;;;4995438;28;20468;-65
2021/07/28 15:12:16;;;;;;;4.60;4.30;;;24.50;99.90;;;;;;4995079;28;20473;-64
2021/07/28 15:14:42;;;;;;;3.77;3.53;;;24.60;99.90;;;;;;4994680;28;20867;-64
2021/07/28 15:17:09;;;;;;;4.33;3.80;;;24.90;99.90;;;;;;4995093;28;20886;-64
2021/07/28 15:19:36;;;;;;;4.30;3.67;;;25.40;99.90;;;;;;4995023;28;20456;-64
2021/07/28 15:22:03;;;;;;;4.80;3.40;;;25.80;99.90;;;;;;4995147;28;20478;-64
2021/07/28 15:24:31;;;;;;;4.37;4.07;;;26.10;99.90;;;;;;4994971;28;20453;-64
2021/07/28 15:26:57;;;;;;;4.80;4.40;;;26.40;99.90;;;;;;4994961;28;20453;-63
2021/07/28 15:29:24;;;;;;;4.00;3.80;;;26.50;99.90;;;;;;4994308;28;20474;-64
2021/07/28 15:31:52;;;;;;;4.40;4.10;;;26.50;99.90;;;;;;4994461;28;20979;-63
2021/07/28 15:34:19;;;;;;;6.80;4.30;;;26.50;99.90;;;;;;4994588;28;20455;-63
2021/07/28 15:36:47;;;;;;;4.70;4.30;;;26.30;99.90;;;;;;4994990;28;20516;-63
2021/07/28 15:40:02;;;;;;;5.13;4.83;;;26.20;99.90;;;;;;4994905;28;20454;-63
2021/07/28 15:42:31;;;;;;;4.70;4.40;;;26.30;99.90;;;;;;4994521;28;20510;-63
2021/07/28 15:44:59;;;;;;;5.37;4.97;;;26.40;99.90;;;;;;4994996;28;20440;-61
2021/07/28 15:47:25;;;;;;;5.00;4.50;;;26.40;99.90;;;;;;4994400;28;20895;-63
2021/07/28 15:49:52;;;;;;;5.23;4.80;;;26.30;99.90;;;;;;4994786;28;20481;-63
2021/07/28 15:52:19;;;;;;;5.20;4.70;;;26.30;99.90;;;;;;4994195;28;20982;-63
2021/07/28 15:54:46;;;;;;;4.63;4.33;;;26.30;99.90;;;;;;4994479;28;20457;-62
2021/07/28 15:57:12;;;;;;;4.87;4.57;;;26.30;99.90;;;;;;4994329;28;20461;-62
2021/07/28 15:59:40;;;;;;;4.77;4.10;;;26.20;99.90;;;;;;4994745;28;20454;-62
2021/07/28 16:02:07;;;;;;;4.60;4.20;;;26.10;99.90;;;;;;4994011;28;20860;-63
2021/07/28 16:04:34;;;;;;;4.60;4.30;;;25.90;99.90;;;;;;4993761;28;20457;-63
2021/07/28 16:07:01;;;;;;;4.90;4.60;;;25.90;99.90;;;;;;4994625;28;20453;-62
2021/07/28 16:09:28;;;;;;;5.37;4.97;;;25.80;99.90;;;;;;4996118;28;20484;-63
2021/07/28 16:11:54;;;;;;;5.10;4.50;;;25.70;99.90;;;;;;4999338;28;20485;-62
2021/07/28 16:14:42;;;;;;;6.17;5.20;;;25.70;99.90;;;;;;4996261;28;20508;-63
2021/07/28 16:17:38;;;;;;;5.10;4.57;;;25.60;99.90;;;;;;4994400;28;20438;-62
2021/07/28 16:20:16;;;;;;;5.13;4.73;;;25.70;99.90;;;;;;4994387;28;20454;-63
2021/07/28 16:22:52;;;;;;;5.20;4.70;;;25.90;99.90;;;;;;4995145;28;20445;-62
2021/07/28 16:25:19;;;;;;;7.43;6.17;;;26.10;99.90;;;;;;4994811;28;20941;-64
2021/07/28 16:27:46;;;;;;;8.27;6.37;;;26.20;99.90;;;;;;4993974;28;20947;-63
2021/07/28 16:30:15;;;;;;;5.10;4.80;;;26.30;99.90;;;;;;4994293;28;20477;-63
2021/07/28 16:32:42;;;;;;;4.87;4.47;;;26.50;99.90;;;;;;4994235;28;20556;-63
2021/07/28 16:35:10;;;;;;;4.37;4.17;;;26.40;99.90;;;;;;4994225;28;20457;-63
2021/07/28 16:37:37;;;;;;;5.57;5.17;;;26.40;99.90;;;;;;4994194;28;20460;-63
2021/07/28 16:40:04;;;;;;;5.77;5.33;;;26.40;99.90;;;;;;4994310;28;20456;-63
2021/07/28 16:42:31;;;;;;;9.10;5.17;;;26.40;99.90;;;;;;4993828;28;20479;-63
2021/07/28 16:44:58;;;;;;;4.70;4.40;;;26.30;99.90;;;;;;4994346;28;20500;-63
2021/07/28 16:47:26;;;;;;;6.17;5.00;;;26.30;99.90;;;;;;4994129;28;20489;-62
2021/07/28 16:49:53;;;;;;;5.43;4.87;;;26.20;99.90;;;;;;4993932;28;20959;-63